sensor_id;sensor_type;location;lat;lon;timestamp;temperature;humidity
6964;DHT22;3522;50.856;7.278;2022-07-22T00:00:51;16.40;99.90
6964;DHT22;3522;50.856;7.278;2022-07-22T00:03:18;16.40;99.90
6964;DHT22;3522;50.856;7.278;2022-07-22T00:05:45;16.40;99.90
6964;DHT22;3522;50.856;7.278;2022-07-22T00:08:13;16.30;99.90
6964;DHT22;3522;50.856;7.278;2022-07-22T00:10:40;16.30;99.90
6964;DHT22;3522;50.856;7.278;2022-07-22T00:13:07;16.30;99.90
6964;DHT22;3522;50.856;7.278;2022-07-22T00:15:33;16.30;99.90
6964;DHT22;3522;50.856;7.278;2022-07-22T00:18:00;16.30;99.90
6964;DHT22;3522;50.856;7.278;2022-07-22T00:20:27;16.30;99.90
6964;DHT22;3522;50.856;7.278;2022-07-22T00:22:53;16.30;99.90
6964;DHT22;3522;50.856;7.278;2022-07-22T00:25:24;16.30;99.90
6964;DHT22;3522;50.856;7.278;2022-07-22T00:27:53;16.30;99.90
6964;DHT22;3522;50.856;7.278;2022-07-22T00:30:20;16.30;99.90
6964;DHT22;3522;50.856;7.278;2022-07-22T00:32:46;16.30;99.90
6964;DHT22;3522;50.856;7.278;2022-07-22T00:35:13;16.30;99.90
6964;DHT22;3522;50.856;7.278;2022-07-22T00:37:40;16.30;99.90
6964;DHT22;3522;50.856;7.278;2022-07-22T00:40:07;16.30;99.90
6964;DHT22;3522;50.856;7.278;2022-07-22T00:42:35;16.30;99.90
6964;DHT22;3522;50.856;7.278;2022-07-22T00:45:02;16.30;99.90
6964;DHT22;3522;50.856;7.278;2022-07-22T00:47:29;16.30;99.90
6964;DHT22;3522;50.856;7.278;2022-07-22T00:49:56;16.30;99.90
6964;DHT22;3522;50.856;7.278;2022-07-22T00:52:22;16.30;99.90
6964;DHT22;3522;50.856;7.278;2022-07-22T00:54:49;16.20;99.90
6964;DHT22;3522;50.856;7.278;2022-07-22T00:57:16;16.20;99.90
6964;DHT22;3522;50.856;7.278;2022-07-22T00:59:44;16.20;99.90
6964;DHT22;3522;50.856;7.278;2022-07-22T01:02:11;16.20;99.90
6964;DHT22;3522;50.856;7.278;2022-07-22T01:04:38;16.20;99.90
6964;DHT22;3522;50.856;7.278;2022-07-22T01:07:05;16.20;99.90
6964;DHT22;3522;50.856;7.278;2022-07-22T01:09:32;16.20;99.90
6964;DHT22;3522;50.856;7.278;2022-07-22T01:11:59;16.20;99.90
6964;DHT22;3522;50.856;7.278;2022-07-22T01:14:26;16.20;99.90
6964;DHT22;3522;50.856;7.278;2022-07-22T01:16:54;16.10;99.90
6964;DHT22;3522;50.856;7.278;2022-07-22T01:19:21;16.10;99.90
6964;DHT22;3522;50.856;7.278;2022-07-22T01:21:49;16.10;99.90
6964;DHT22;3522;50.856;7.278;2022-07-22T01:24:16;16.10;99.90
6964;DHT22;3522;50.856;7.278;2022-07-22T01:26:43;16.10;99.90
6964;DHT22;3522;50.856;7.278;2022-07-22T01:29:09;16.10;99.90
6964;DHT22;3522;50.856;7.278;2022-07-22T01:31:36;16.10;99.90
6964;DHT22;3522;50.856;7.278;2022-07-22T01:34:03;16.10;99.90
6964;DHT22;3522;50.856;7.278;2022-07-22T01:36:30;16.10;99.90
6964;DHT22;3522;50.856;7.278;2022-07-22T01:38:58;16.10;99.90
6964;DHT22;3522;50.856;7.278;2022-07-22T01:41:24;16.10;99.90
6964;DHT22;3522;50.856;7.278;2022-07-22T01:43:51;16.10;99.90
6964;DHT22;3522;50.856;7.278;2022-07-22T01:46:18;16.20;99.90
6964;DHT22;3522;50.856;7.278;2022-07-22T01:48:45;16.20;99.90
6964;DHT22;3522;50.856;7.278;2022-07-22T01:51:11;16.20;99.90
6964;DHT22;3522;50.856;7.278;2022-07-22T01:53:38;16.10;99.90
6964;DHT22;3522;50.856;7.278;2022-07-22T01:56:06;16.10;99.90
6964;DHT22;3522;50.856;7.278;2022-07-22T01:58:33;16.10;99.90
6964;DHT22;3522;50.856;7.278;2022-07-22T02:01:00;16.20;99.90
6964;DHT22;3522;50.856;7.278;2022-07-22T02:03:27;16.20;99.90
6964;DHT22;3522;50.856;7.278;2022-07-22T02:05:53;16.20;99.90
6964;DHT22;3522;50.856;7.278;2022-07-22T02:08:20;16.20;99.90
6964;DHT22;3522;50.856;7.278;2022-07-22T02:10:47;16.20;99.90
6964;DHT22;3522;50.856;7.278;2022-07-22T02:13:15;16.20;99.90
6964;DHT22;3522;50.856;7.278;2022-07-22T02:15:43;16.20;99.90
6964;DHT22;3522;50.856;7.278;2022-07-22T02:18:10;16.20;99.90
6964;DHT22;3522;50.856;7.278;2022-07-22T02:20:37;16.20;99.90
6964;DHT22;3522;50.856;7.278;2022-07-22T02:23:04;16.20;99.90
6964;DHT22;3522;50.856;7.278;2022-07-22T02:25:30;16.10;99.90
6964;DHT22;3522;50.856;7.278;2022-07-22T02:27:57;16.10;99.90
6964;DHT22;3522;50.856;7.278;2022-07-22T02:30:25;16.10;99.90
6964;DHT22;3522;50.856;7.278;2022-07-22T02:32:52;16.10;99.90
6964;DHT22;3522;50.856;7.278;2022-07-22T02:35:19;16.10;99.90
6964;DHT22;3522;50.856;7.278;2022-07-22T02:37:45;16.10;99.90
6964;DHT22;3522;50.856;7.278;2022-07-22T02:40:12;16.10;99.90
6964;DHT22;3522;50.856;7.278;2022-07-22T02:42:39;16.10;99.90
6964;DHT22;3522;50.856;7.278;2022-07-22T02:45:06;16.10;99.90
6964;DHT22;3522;50.856;7.278;2022-07-22T02:47:35;16.10;99.90
6964;DHT22;3522;50.856;7.278;2022-07-22T02:50:02;16.10;99.90
6964;DHT22;3522;50.856;7.278;2022-07-22T02:52:28;16.10;99.90
6964;DHT22;3522;50.856;7.278;2022-07-22T02:54:55;16.00;99.90
6964;DHT22;3522;50.856;7.278;2022-07-22T02:57:22;16.10;99.90
6964;DHT22;3522;50.856;7.278;2022-07-22T02:59:49;16.10;99.90
6964;DHT22;3522;50.856;7.278;2022-07-22T03:02:16;16.10;99.90
6964;DHT22;3522;50.856;7.278;2022-07-22T03:04:44;16.10;99.90
6964;DHT22;3522;50.856;7.278;2022-07-22T03:07:11;16.10;99.90
6964;DHT22;3522;50.856;7.278;2022-07-22T03:09:37;16.10;99.90
6964;DHT22;3522;50.856;7.278;2022-07-22T03:12:04;16.10;99.90
6964;DHT22;3522;50.856;7.278;2022-07-22T03:14:31;16.10;99.90
6964;DHT22;3522;50.856;7.278;2022-07-22T03:16:58;16.10;99.90
6964;DHT22;3522;50.856;7.278;2022-07-22T03:19:24;16.10;99.90
6964;DHT22;3522;50.856;7.278;2022-07-22T03:21:52;16.00;99.90
6964;DHT22;3522;50.856;7.278;2022-07-22T03:24:19;16.00;99.90
6964;DHT22;3522;50.856;7.278;2022-07-22T03:26:46;16.00;99.90
6964;DHT22;3522;50.856;7.278;2022-07-22T03:29:12;16.00;99.90
6964;DHT22;3522;50.856;7.278;2022-07-22T03:31:39;16.00;99.90
6964;DHT22;3522;50.856;7.278;2022-07-22T03:34:06;16.00;99.90
6964;DHT22;3522;50.856;7.278;2022-07-22T03:36:32;16.00;99.90
6964;DHT22;3522;50.856;7.278;2022-07-22T03:39:01;16.00;99.90
6964;DHT22;3522;50.856;7.278;2022-07-22T03:41:27;16.00;99.90
6964;DHT22;3522;50.856;7.278;2022-07-22T03:43:54;16.00;99.90
6964;DHT22;3522;50.856;7.278;2022-07-22T03:46:21;16.00;99.90
6964;DHT22;3522;50.856;7.278;2022-07-22T03:48:47;16.00;99.90
6964;DHT22;3522;50.856;7.278;2022-07-22T03:51:14;16.00;99.90
6964;DHT22;3522;50.856;7.278;2022-07-22T03:53:44;16.00;99.90
6964;DHT22;3522;50.856;7.278;2022-07-22T03:56:26;16.00;99.90
6964;DHT22;3522;50.856;7.278;2022-07-22T03:58:53;16.00;99.90
6964;DHT22;3522;50.856;7.278;2022-07-22T04:01:20;16.00;99.90
6964;DHT22;3522;50.856;7.278;2022-07-22T04:03:48;16.00;99.90
6964;DHT22;3522;50.856;7.278;2022-07-22T04:06:15;16.00;99.90
6964;DHT22;3522;50.856;7.278;2022-07-22T04:08:41;16.00;99.90
6964;DHT22;3522;50.856;7.278;2022-07-22T04:11:08;16.00;99.90
6964;DHT22;3522;50.856;7.278;2022-07-22T04:13:36;16.00;99.90
6964;DHT22;3522;50.856;7.278;2022-07-22T04:16:03;16.00;99.90
6964;DHT22;3522;50.856;7.278;2022-07-22T04:18:30;15.90;99.90
6964;DHT22;3522;50.856;7.278;2022-07-22T04:20:57;16.00;99.90
6964;DHT22;3522;50.856;7.278;2022-07-22T04:23:23;15.90;99.90
6964;DHT22;3522;50.856;7.278;2022-07-22T04:25:50;15.90;99.90
6964;DHT22;3522;50.856;7.278;2022-07-22T04:28:17;15.90;99.90
6964;DHT22;3522;50.856;7.278;2022-07-22T04:30:45;15.90;99.90
6964;DHT22;3522;50.856;7.278;2022-07-22T04:33:12;15.80;99.90
6964;DHT22;3522;50.856;7.278;2022-07-22T04:35:38;15.80;99.90
6964;DHT22;3522;50.856;7.278;2022-07-22T04:38:05;15.80;99.90
6964;DHT22;3522;50.856;7.278;2022-07-22T04:40:32;15.80;99.90
6964;DHT22;3522;50.856;7.278;2022-07-22T04:42:59;15.90;99.90
6964;DHT22;3522;50.856;7.278;2022-07-22T04:45:25;15.90;99.90
6964;DHT22;3522;50.856;7.278;2022-07-22T04:47:53;15.90;99.90
6964;DHT22;3522;50.856;7.278;2022-07-22T04:50:20;15.90;99.90
6964;DHT22;3522;50.856;7.278;2022-07-22T04:52:47;15.90;99.90
6964;DHT22;3522;50.856;7.278;2022-07-22T04:55:13;15.90;99.90
6964;DHT22;3522;50.856;7.278;2022-07-22T04:57:40;15.90;99.90
6964;DHT22;3522;50.856;7.278;2022-07-22T05:00:09;15.90;99.90
6964;DHT22;3522;50.856;7.278;2022-07-22T05:02:36;16.00;99.90
6964;DHT22;3522;50.856;7.278;2022-07-22T05:05:04;16.00;99.90
6964;DHT22;3522;50.856;7.278;2022-07-22T05:07:31;16.10;99.90
6964;DHT22;3522;50.856;7.278;2022-07-22T05:09:58;16.10;99.90
6964;DHT22;3522;50.856;7.278;2022-07-22T05:12:24;16.20;99.90
6964;DHT22;3522;50.856;7.278;2022-07-22T05:14:51;16.20;99.90
6964;DHT22;3522;50.856;7.278;2022-07-22T05:17:18;16.20;99.90
6964;DHT22;3522;50.856;7.278;2022-07-22T05:19:44;16.30;99.90
6964;DHT22;3522;50.856;7.278;2022-07-22T05:22:13;16.30;99.90
6964;DHT22;3522;50.856;7.278;2022-07-22T05:24:39;16.30;99.90
6964;DHT22;3522;50.856;7.278;2022-07-22T05:27:06;16.30;99.90
6964;DHT22;3522;50.856;7.278;2022-07-22T05:29:32;16.30;99.90
6964;DHT22;3522;50.856;7.278;2022-07-22T05:32:04;16.30;99.90
6964;DHT22;3522;50.856;7.278;2022-07-22T05:34:31;16.30;99.90
6964;DHT22;3522;50.856;7.278;2022-07-22T05:36:57;16.30;99.90
6964;DHT22;3522;50.856;7.278;2022-07-22T05:39:25;16.30;99.90
6964;DHT22;3522;50.856;7.278;2022-07-22T05:41:52;16.30;99.90
6964;DHT22;3522;50.856;7.278;2022-07-22T05:44:19;16.30;99.90
6964;DHT22;3522;50.856;7.278;2022-07-22T05:46:45;16.30;99.90
6964;DHT22;3522;50.856;7.278;2022-07-22T05:49:12;16.40;99.90
6964;DHT22;3522;50.856;7.278;2022-07-22T05:51:39;16.40;99.90
6964;DHT22;3522;50.856;7.278;2022-07-22T05:54:05;16.40;99.90
6964;DHT22;3522;50.856;7.278;2022-07-22T05:56:34;16.50;99.90
6964;DHT22;3522;50.856;7.278;2022-07-22T05:59:00;16.50;99.90
6964;DHT22;3522;50.856;7.278;2022-07-22T06:01:27;16.50;99.90
6964;DHT22;3522;50.856;7.278;2022-07-22T06:03:54;16.50;99.90
6964;DHT22;3522;50.856;7.278;2022-07-22T06:06:20;16.60;99.90
6964;DHT22;3522;50.856;7.278;2022-07-22T06:08:47;16.70;99.90
6964;DHT22;3522;50.856;7.278;2022-07-22T06:11:14;16.80;99.90
6964;DHT22;3522;50.856;7.278;2022-07-22T06:13:42;16.90;99.90
6964;DHT22;3522;50.856;7.278;2022-07-22T06:16:08;16.90;99.90
6964;DHT22;3522;50.856;7.278;2022-07-22T06:18:35;16.90;99.90
6964;DHT22;3522;50.856;7.278;2022-07-22T06:21:03;16.90;99.90
6964;DHT22;3522;50.856;7.278;2022-07-22T06:23:30;16.90;99.90
6964;DHT22;3522;50.856;7.278;2022-07-22T06:25:56;17.00;99.90
6964;DHT22;3522;50.856;7.278;2022-07-22T06:28:23;17.00;99.90
6964;DHT22;3522;50.856;7.278;2022-07-22T06:30:51;17.00;99.90
6964;DHT22;3522;50.856;7.278;2022-07-22T06:33:18;17.10;99.90
6964;DHT22;3522;50.856;7.278;2022-07-22T06:35:45;17.10;99.90
6964;DHT22;3522;50.856;7.278;2022-07-22T06:38:11;17.20;99.90
6964;DHT22;3522;50.856;7.278;2022-07-22T06:40:38;17.30;99.90
6964;DHT22;3522;50.856;7.278;2022-07-22T06:43:05;17.30;99.90
6964;DHT22;3522;50.856;7.278;2022-07-22T06:45:31;17.40;99.90
6964;DHT22;3522;50.856;7.278;2022-07-22T06:47:59;17.50;99.90
6964;DHT22;3522;50.856;7.278;2022-07-22T06:50:26;17.50;99.90
6964;DHT22;3522;50.856;7.278;2022-07-22T06:52:53;17.50;99.90
6964;DHT22;3522;50.856;7.278;2022-07-22T06:55:20;17.50;99.90
6964;DHT22;3522;50.856;7.278;2022-07-22T06:57:46;17.60;99.90
6964;DHT22;3522;50.856;7.278;2022-07-22T07:00:13;17.60;99.90
6964;DHT22;3522;50.856;7.278;2022-07-22T07:02:40;17.70;99.90
6964;DHT22;3522;50.856;7.278;2022-07-22T07:05:09;17.70;99.90
6964;DHT22;3522;50.856;7.278;2022-07-22T07:07:36;17.80;99.90
6964;DHT22;3522;50.856;7.278;2022-07-22T07:10:03;17.90;99.90
6964;DHT22;3522;50.856;7.278;2022-07-22T07:12:33;17.90;99.90
6964;DHT22;3522;50.856;7.278;2022-07-22T07:15:00;18.00;99.90
6964;DHT22;3522;50.856;7.278;2022-07-22T07:17:26;18.00;99.90
6964;DHT22;3522;50.856;7.278;2022-07-22T07:19:56;18.10;99.90
6964;DHT22;3522;50.856;7.278;2022-07-22T07:22:24;18.20;99.90
6964;DHT22;3522;50.856;7.278;2022-07-22T07:24:51;18.20;99.90
6964;DHT22;3522;50.856;7.278;2022-07-22T07:27:17;18.30;99.90
6964;DHT22;3522;50.856;7.278;2022-07-22T07:29:44;18.30;99.90
6964;DHT22;3522;50.856;7.278;2022-07-22T07:32:12;18.40;99.90
6964;DHT22;3522;50.856;7.278;2022-07-22T07:34:38;18.40;99.90
6964;DHT22;3522;50.856;7.278;2022-07-22T07:37:05;18.50;99.90
6964;DHT22;3522;50.856;7.278;2022-07-22T07:39:33;18.60;99.90
6964;DHT22;3522;50.856;7.278;2022-07-22T07:42:00;18.70;99.90
6964;DHT22;3522;50.856;7.278;2022-07-22T07:44:27;18.80;99.90
6964;DHT22;3522;50.856;7.278;2022-07-22T07:46:53;18.80;99.90
6964;DHT22;3522;50.856;7.278;2022-07-22T07:49:20;18.60;99.90
6964;DHT22;3522;50.856;7.278;2022-07-22T07:51:47;18.60;99.90
6964;DHT22;3522;50.856;7.278;2022-07-22T07:54:14;18.60;99.90
6964;DHT22;3522;50.856;7.278;2022-07-22T07:56:42;18.70;99.90
6964;DHT22;3522;50.856;7.278;2022-07-22T07:59:11;18.80;99.90
6964;DHT22;3522;50.856;7.278;2022-07-22T08:01:38;18.90;99.90
6964;DHT22;3522;50.856;7.278;2022-07-22T08:04:04;18.90;99.90
6964;DHT22;3522;50.856;7.278;2022-07-22T08:06:31;18.90;99.90
6964;DHT22;3522;50.856;7.278;2022-07-22T08:08:58;18.90;99.90
6964;DHT22;3522;50.856;7.278;2022-07-22T08:11:25;18.90;99.90
6964;DHT22;3522;50.856;7.278;2022-07-22T08:13:57;19.00;99.90
6964;DHT22;3522;50.856;7.278;2022-07-22T08:16:23;19.10;99.90
6964;DHT22;3522;50.856;7.278;2022-07-22T08:18:53;19.10;99.90
6964;DHT22;3522;50.856;7.278;2022-07-22T08:21:20;19.20;99.90
6964;DHT22;3522;50.856;7.278;2022-07-22T08:23:47;19.30;99.90
6964;DHT22;3522;50.856;7.278;2022-07-22T08:26:13;19.30;99.90
6964;DHT22;3522;50.856;7.278;2022-07-22T08:28:40;19.40;99.90
6964;DHT22;3522;50.856;7.278;2022-07-22T08:31:08;19.40;99.90
6964;DHT22;3522;50.856;7.278;2022-07-22T08:33:35;19.40;99.90
6964;DHT22;3522;50.856;7.278;2022-07-22T08:36:02;19.40;99.90
6964;DHT22;3522;50.856;7.278;2022-07-22T08:38:29;19.30;99.90
6964;DHT22;3522;50.856;7.278;2022-07-22T08:40:56;19.30;99.90
6964;DHT22;3522;50.856;7.278;2022-07-22T08:43:22;19.20;99.90
6964;DHT22;3522;50.856;7.278;2022-07-22T08:45:49;19.10;99.90
6964;DHT22;3522;50.856;7.278;2022-07-22T08:48:17;19.10;99.90
6964;DHT22;3522;50.856;7.278;2022-07-22T08:50:50;19.10;99.90
6964;DHT22;3522;50.856;7.278;2022-07-22T08:53:32;19.20;99.90
6964;DHT22;3522;50.856;7.278;2022-07-22T08:55:59;19.40;99.90
6964;DHT22;3522;50.856;7.278;2022-07-22T08:58:26;19.50;99.90
6964;DHT22;3522;50.856;7.278;2022-07-22T09:01:03;19.50;99.90
6964;DHT22;3522;50.856;7.278;2022-07-22T09:03:31;19.60;99.90
6964;DHT22;3522;50.856;7.278;2022-07-22T09:05:58;19.70;99.90
6964;DHT22;3522;50.856;7.278;2022-07-22T09:08:25;19.70;99.90
6964;DHT22;3522;50.856;7.278;2022-07-22T09:10:52;19.70;99.90
6964;DHT22;3522;50.856;7.278;2022-07-22T09:13:19;19.60;99.90
6964;DHT22;3522;50.856;7.278;2022-07-22T09:15:46;19.50;99.90
6964;DHT22;3522;50.856;7.278;2022-07-22T09:18:13;19.60;99.90
6964;DHT22;3522;50.856;7.278;2022-07-22T09:20:41;19.50;99.90
6964;DHT22;3522;50.856;7.278;2022-07-22T09:23:10;19.60;99.90
6964;DHT22;3522;50.856;7.278;2022-07-22T09:25:38;19.60;99.90
6964;DHT22;3522;50.856;7.278;2022-07-22T09:28:10;19.70;99.90
6964;DHT22;3522;50.856;7.278;2022-07-22T09:30:38;19.70;99.90
6964;DHT22;3522;50.856;7.278;2022-07-22T09:33:05;19.80;99.90
6964;DHT22;3522;50.856;7.278;2022-07-22T09:35:32;19.90;99.90
6964;DHT22;3522;50.856;7.278;2022-07-22T09:38:01;20.00;99.90
6964;DHT22;3522;50.856;7.278;2022-07-22T09:40:30;20.10;99.90
6964;DHT22;3522;50.856;7.278;2022-07-22T09:42:57;20.20;99.90
6964;DHT22;3522;50.856;7.278;2022-07-22T09:45:25;20.30;99.90
6964;DHT22;3522;50.856;7.278;2022-07-22T09:47:53;20.40;99.90
6964;DHT22;3522;50.856;7.278;2022-07-22T09:50:21;20.60;99.90
6964;DHT22;3522;50.856;7.278;2022-07-22T09:52:48;20.80;99.90
6964;DHT22;3522;50.856;7.278;2022-07-22T09:55:18;20.90;99.90
6964;DHT22;3522;50.856;7.278;2022-07-22T09:57:45;21.00;99.90
6964;DHT22;3522;50.856;7.278;2022-07-22T10:00:12;21.20;99.90
6964;DHT22;3522;50.856;7.278;2022-07-22T10:02:40;21.30;99.90
6964;DHT22;3522;50.856;7.278;2022-07-22T10:05:08;21.30;99.90
6964;DHT22;3522;50.856;7.278;2022-07-22T10:07:35;21.50;99.90
6964;DHT22;3522;50.856;7.278;2022-07-22T10:10:03;21.70;99.90
6964;DHT22;3522;50.856;7.278;2022-07-22T10:12:31;21.80;99.90
6964;DHT22;3522;50.856;7.278;2022-07-22T10:15:03;21.90;99.90
6964;DHT22;3522;50.856;7.278;2022-07-22T10:17:29;21.90;99.90
6964;DHT22;3522;50.856;7.278;2022-07-22T10:19:56;21.90;99.90
6964;DHT22;3522;50.856;7.278;2022-07-22T10:25:12;22.10;99.90
6964;DHT22;3522;50.856;7.278;2022-07-22T10:27:47;22.30;99.90
6964;DHT22;3522;50.856;7.278;2022-07-22T10:30:14;22.70;99.90
6964;DHT22;3522;50.856;7.278;2022-07-22T10:32:41;23.10;99.90
6964;DHT22;3522;50.856;7.278;2022-07-22T10:35:19;23.30;99.90
6964;DHT22;3522;50.856;7.278;2022-07-22T10:37:48;23.50;99.90
6964;DHT22;3522;50.856;7.278;2022-07-22T10:40:15;23.50;99.90
6964;DHT22;3522;50.856;7.278;2022-07-22T10:45:35;23.20;99.90
6964;DHT22;3522;50.856;7.278;2022-07-22T10:48:04;22.90;99.90
6964;DHT22;3522;50.856;7.278;2022-07-22T10:50:40;22.80;99.90
6964;DHT22;3522;50.856;7.278;2022-07-22T10:53:07;22.70;99.90
6964;DHT22;3522;50.856;7.278;2022-07-22T10:55:34;22.50;99.90
6964;DHT22;3522;50.856;7.278;2022-07-22T10:58:06;22.30;99.90
6964;DHT22;3522;50.856;7.278;2022-07-22T11:00:54;22.20;99.90
6964;DHT22;3522;50.856;7.278;2022-07-22T11:03:24;22.00;99.90
6964;DHT22;3522;50.856;7.278;2022-07-22T11:05:51;21.90;99.90
6964;DHT22;3522;50.856;7.278;2022-07-22T11:08:18;21.90;99.90
6964;DHT22;3522;50.856;7.278;2022-07-22T11:10:46;21.80;99.90
6964;DHT22;3522;50.856;7.278;2022-07-22T11:13:13;21.70;99.90
6964;DHT22;3522;50.856;7.278;2022-07-22T11:15:40;21.80;99.90
6964;DHT22;3522;50.856;7.278;2022-07-22T11:18:08;21.80;99.90
6964;DHT22;3522;50.856;7.278;2022-07-22T11:20:35;21.90;99.90
6964;DHT22;3522;50.856;7.278;2022-07-22T11:23:02;22.00;99.90
6964;DHT22;3522;50.856;7.278;2022-07-22T11:25:30;22.00;99.90
6964;DHT22;3522;50.856;7.278;2022-07-22T11:27:56;21.90;99.90
6964;DHT22;3522;50.856;7.278;2022-07-22T11:30:23;22.00;99.90
6964;DHT22;3522;50.856;7.278;2022-07-22T11:32:50;22.10;99.90
6964;DHT22;3522;50.856;7.278;2022-07-22T11:35:18;22.20;99.90
6964;DHT22;3522;50.856;7.278;2022-07-22T11:37:54;22.10;99.90
6964;DHT22;3522;50.856;7.278;2022-07-22T11:40:21;22.20;99.90
6964;DHT22;3522;50.856;7.278;2022-07-22T11:42:59;22.30;99.90
6964;DHT22;3522;50.856;7.278;2022-07-22T11:45:26;22.50;99.90
6964;DHT22;3522;50.856;7.278;2022-07-22T11:47:53;22.70;99.90
6964;DHT22;3522;50.856;7.278;2022-07-22T11:50:30;23.00;99.90
6964;DHT22;3522;50.856;7.278;2022-07-22T11:52:56;23.10;99.90
6964;DHT22;3522;50.856;7.278;2022-07-22T11:55:23;23.40;99.90
6964;DHT22;3522;50.856;7.278;2022-07-22T11:57:50;23.80;99.90
6964;DHT22;3522;50.856;7.278;2022-07-22T12:00:17;24.30;99.90
6964;DHT22;3522;50.856;7.278;2022-07-22T12:02:44;24.50;99.90
6964;DHT22;3522;50.856;7.278;2022-07-22T12:05:10;24.70;99.90
6964;DHT22;3522;50.856;7.278;2022-07-22T12:07:38;24.70;99.90
6964;DHT22;3522;50.856;7.278;2022-07-22T12:10:05;24.60;99.90
6964;DHT22;3522;50.856;7.278;2022-07-22T12:12:39;24.50;99.90
6964;DHT22;3522;50.856;7.278;2022-07-22T12:15:06;24.50;99.90
6964;DHT22;3522;50.856;7.278;2022-07-22T12:17:34;24.40;99.90
6964;DHT22;3522;50.856;7.278;2022-07-22T12:20:08;24.30;99.90
6964;DHT22;3522;50.856;7.278;2022-07-22T12:22:35;24.30;99.90
6964;DHT22;3522;50.856;7.278;2022-07-22T12:25:11;24.40;99.90
6964;DHT22;3522;50.856;7.278;2022-07-22T12:27:38;24.50;99.90
6964;DHT22;3522;50.856;7.278;2022-07-22T12:30:10;24.50;99.90
6964;DHT22;3522;50.856;7.278;2022-07-22T12:32:46;24.70;99.90
6964;DHT22;3522;50.856;7.278;2022-07-22T12:35:13;24.90;99.90
6964;DHT22;3522;50.856;7.278;2022-07-22T12:37:41;24.90;99.90
6964;DHT22;3522;50.856;7.278;2022-07-22T12:40:09;24.80;99.90
6964;DHT22;3522;50.856;7.278;2022-07-22T12:42:38;24.90;99.90
6964;DHT22;3522;50.856;7.278;2022-07-22T12:45:06;24.90;99.90
6964;DHT22;3522;50.856;7.278;2022-07-22T12:50:23;25.00;99.90
6964;DHT22;3522;50.856;7.278;2022-07-22T12:52:51;25.10;99.90
6964;DHT22;3522;50.856;7.278;2022-07-22T12:55:18;25.40;99.90
6964;DHT22;3522;50.856;7.278;2022-07-22T12:57:46;25.30;99.90
6964;DHT22;3522;50.856;7.278;2022-07-22T13:00:15;25.30;99.90
6964;DHT22;3522;50.856;7.278;2022-07-22T13:02:42;25.50;99.90
6964;DHT22;3522;50.856;7.278;2022-07-22T13:05:09;25.80;99.90
6964;DHT22;3522;50.856;7.278;2022-07-22T13:07:36;26.00;99.90
6964;DHT22;3522;50.856;7.278;2022-07-22T13:10:02;25.80;99.90
6964;DHT22;3522;50.856;7.278;2022-07-22T13:12:29;25.60;99.90
6964;DHT22;3522;50.856;7.278;2022-07-22T13:14:57;25.50;99.90
6964;DHT22;3522;50.856;7.278;2022-07-22T13:17:24;25.60;99.90
6964;DHT22;3522;50.856;7.278;2022-07-22T13:19:51;25.60;99.90
6964;DHT22;3522;50.856;7.278;2022-07-22T13:22:17;25.80;99.90
6964;DHT22;3522;50.856;7.278;2022-07-22T13:24:44;25.70;99.90
6964;DHT22;3522;50.856;7.278;2022-07-22T13:27:11;25.80;99.90
6964;DHT22;3522;50.856;7.278;2022-07-22T13:29:37;25.80;99.90
6964;DHT22;3522;50.856;7.278;2022-07-22T13:32:06;26.00;99.90
6964;DHT22;3522;50.856;7.278;2022-07-22T13:34:32;25.90;99.90
6964;DHT22;3522;50.856;7.278;2022-07-22T13:36:59;25.90;99.90
6964;DHT22;3522;50.856;7.278;2022-07-22T13:39:26;25.90;99.90
6964;DHT22;3522;50.856;7.278;2022-07-22T13:41:53;25.80;99.90
6964;DHT22;3522;50.856;7.278;2022-07-22T13:44:19;25.60;99.90
6964;DHT22;3522;50.856;7.278;2022-07-22T13:46:46;25.70;99.90
6964;DHT22;3522;50.856;7.278;2022-07-22T13:49:15;25.80;99.90
6964;DHT22;3522;50.856;7.278;2022-07-22T13:51:42;26.00;99.90
6964;DHT22;3522;50.856;7.278;2022-07-22T13:54:09;25.90;99.90
6964;DHT22;3522;50.856;7.278;2022-07-22T13:56:35;25.60;99.90
6964;DHT22;3522;50.856;7.278;2022-07-22T13:59:02;25.30;99.90
6964;DHT22;3522;50.856;7.278;2022-07-22T14:01:29;25.20;99.90
6964;DHT22;3522;50.856;7.278;2022-07-22T14:03:57;25.10;99.90
6964;DHT22;3522;50.856;7.278;2022-07-22T14:06:27;25.40;99.90
6964;DHT22;3522;50.856;7.278;2022-07-22T14:08:53;25.70;99.90
6964;DHT22;3522;50.856;7.278;2022-07-22T14:11:20;25.80;99.90
6964;DHT22;3522;50.856;7.278;2022-07-22T14:13:47;25.80;99.90
6964;DHT22;3522;50.856;7.278;2022-07-22T14:16:13;25.80;99.90
6964;DHT22;3522;50.856;7.278;2022-07-22T14:18:57;25.70;99.90
6964;DHT22;3522;50.856;7.278;2022-07-22T14:21:24;25.50;99.90
6964;DHT22;3522;50.856;7.278;2022-07-22T14:23:52;25.30;99.90
6964;DHT22;3522;50.856;7.278;2022-07-22T14:26:19;25.30;99.90
6964;DHT22;3522;50.856;7.278;2022-07-22T14:28:45;25.10;99.90
6964;DHT22;3522;50.856;7.278;2022-07-22T14:31:12;25.00;99.90
6964;DHT22;3522;50.856;7.278;2022-07-22T14:33:39;25.10;99.90
6964;DHT22;3522;50.856;7.278;2022-07-22T14:36:06;25.20;99.90
6964;DHT22;3522;50.856;7.278;2022-07-22T14:38:33;25.00;99.90
6964;DHT22;3522;50.856;7.278;2022-07-22T14:41:01;24.80;99.90
6964;DHT22;3522;50.856;7.278;2022-07-22T14:43:28;24.70;99.90
6964;DHT22;3522;50.856;7.278;2022-07-22T14:45:54;24.90;99.90
6964;DHT22;3522;50.856;7.278;2022-07-22T14:48:21;25.00;99.90
6964;DHT22;3522;50.856;7.278;2022-07-22T14:50:48;25.10;99.90
6964;DHT22;3522;50.856;7.278;2022-07-22T14:53:14;25.10;99.90
6964;DHT22;3522;50.856;7.278;2022-07-22T14:55:42;25.10;99.90
6964;DHT22;3522;50.856;7.278;2022-07-22T14:58:10;25.10;99.90
6964;DHT22;3522;50.856;7.278;2022-07-22T15:00:37;25.00;99.90
6964;DHT22;3522;50.856;7.278;2022-07-22T15:03:03;24.90;99.90
6964;DHT22;3522;50.856;7.278;2022-07-22T15:05:30;24.80;99.90
6964;DHT22;3522;50.856;7.278;2022-07-22T15:07:57;24.80;99.90
6964;DHT22;3522;50.856;7.278;2022-07-22T15:10:23;24.80;99.90
6964;DHT22;3522;50.856;7.278;2022-07-22T15:12:50;24.70;99.90
6964;DHT22;3522;50.856;7.278;2022-07-22T15:15:18;24.70;99.90
6964;DHT22;3522;50.856;7.278;2022-07-22T15:17:45;24.60;99.90
6964;DHT22;3522;50.856;7.278;2022-07-22T15:20:12;24.60;99.90
6964;DHT22;3522;50.856;7.278;2022-07-22T15:22:38;24.60;99.90
6964;DHT22;3522;50.856;7.278;2022-07-22T15:25:05;24.60;99.90
6964;DHT22;3522;50.856;7.278;2022-07-22T15:27:32;24.50;99.90
6964;DHT22;3522;50.856;7.278;2022-07-22T15:30:03;24.40;99.90
6964;DHT22;3522;50.856;7.278;2022-07-22T15:32:31;24.30;99.90
6964;DHT22;3522;50.856;7.278;2022-07-22T15:34:57;24.20;99.90
6964;DHT22;3522;50.856;7.278;2022-07-22T15:37:24;24.20;99.90
6964;DHT22;3522;50.856;7.278;2022-07-22T15:39:51;24.10;99.90
6964;DHT22;3522;50.856;7.278;2022-07-22T15:42:18;24.30;99.90
6964;DHT22;3522;50.856;7.278;2022-07-22T15:44:45;24.40;99.90
6964;DHT22;3522;50.856;7.278;2022-07-22T15:47:12;24.50;99.90
6964;DHT22;3522;50.856;7.278;2022-07-22T15:49:40;24.40;99.90
6964;DHT22;3522;50.856;7.278;2022-07-22T15:52:06;24.20;99.90
6964;DHT22;3522;50.856;7.278;2022-07-22T15:54:33;24.10;99.90
6964;DHT22;3522;50.856;7.278;2022-07-22T15:57:02;24.00;99.90
6964;DHT22;3522;50.856;7.278;2022-07-22T15:59:43;23.80;99.90
6964;DHT22;3522;50.856;7.278;2022-07-22T16:02:09;23.70;99.90
6964;DHT22;3522;50.856;7.278;2022-07-22T16:04:36;23.50;99.90
6964;DHT22;3522;50.856;7.278;2022-07-22T16:07:04;23.40;99.90
6964;DHT22;3522;50.856;7.278;2022-07-22T16:09:31;23.30;99.90
6964;DHT22;3522;50.856;7.278;2022-07-22T16:11:58;23.50;99.90